Terminal Aerodrome Forecast
Issued by NWS Louisville, KY

Home | Current Version | Previous Version | Text Only | Print | Product List | Glossary On
Versions: 1 2 3 4 5 6 7 8 9 10 11 12 13 14 15 16 17 18 19 20 21 22 23 24 25 26
590
FTUS43 KLMK 011540 AAA
TAFSDF
TAF AMD
KSDF 011540Z 0116/0218 VRB04KT 5SM BR VCSH BKN006
     FM011700 18006KT 6SM BR VCSH SCT008 BKN012
      TEMPO 0117/0119 3SM -RA BR BKN008
     FM012100 22005KT P6SM BKN022
     FM020200 21004KT 6SM BR BKN030
     FM020600 VRB03KT 5SM BR BKN015=

USA.gov is the U.S. government's official web portal to all federal, state and local government web resources and services.